Time;durP1;ratioP1;P1;durP2;ratioP2;P2;SDS_P1;SDS_P2;PMS_P1;PMS_P2;Temp;Humidity;BMP_temperature;BMP_pressure;BME280_temperature;BME280_humidity;BME280_pressure;Samples;Min_cycle;Max_cycle;Signal;HPM_P1;HPM_P2
2024/04/14 00:00:05;;;;;;;10.07;2.95;;;15.00;95.50;;;;;;5423627;26;20019;-74
2024/04/14 00:02:37;;;;;;;4.70;2.80;;;15.00;95.50;;;;;;5454107;26;20013;-73
2024/04/14 00:05:04;;;;;;;7.53;3.67;;;15.00;95.40;;;;;;5419961;26;20003;-73
2024/04/14 00:07:31;;;;;;;6.53;3.90;;;15.00;95.40;;;;;;5451689;26;19998;-73
2024/04/14 00:10:00;;;;;;;7.28;3.70;;;15.00;95.40;;;;;;5451691;26;20011;-73
2024/04/14 00:12:27;;;;;;;8.00;3.72;;;15.00;95.20;;;;;;5451802;26;19995;-73
2024/04/14 00:14:54;;;;;;;10.63;3.63;;;15.00;95.20;;;;;;5453107;26;19999;-73
2024/04/14 00:17:21;;;;;;;5.05;3.45;;;15.00;95.20;;;;;;5451448;26;19999;-73
2024/04/14 00:19:52;;;;;;;9.82;4.03;;;15.00;95.20;;;;;;5453110;26;19999;-73
2024/04/14 00:22:19;;;;;;;6.50;3.53;;;15.00;95.20;;;;;;5451711;26;20003;-73
2024/04/14 00:24:47;;;;;;;4.40;3.35;;;14.90;95.00;;;;;;5451341;26;19999;-73
2024/04/14 00:27:14;;;;;;;6.90;3.40;;;14.90;95.20;;;;;;5451576;26;20009;-73
2024/04/14 00:29:41;;;;;;;6.00;3.22;;;14.90;94.90;;;;;;5421733;26;20011;-73
2024/04/14 00:32:08;;;;;;;6.50;2.53;;;14.90;94.80;;;;;;5451310;26;20390;-73
2024/04/14 00:34:35;;;;;;;11.23;3.90;;;14.80;94.60;;;;;;5481613;26;20002;-73
2024/04/14 00:37:03;;;;;;;7.78;2.35;;;14.80;94.10;;;;;;5452816;26;20513;-73
2024/04/14 00:39:30;;;;;;;7.13;3.13;;;14.70;94.10;;;;;;5481757;26;20042;-73
2024/04/14 00:41:58;;;;;;;7.50;2.25;;;14.60;93.80;;;;;;5453184;26;19995;-73
2024/04/14 00:44:25;;;;;;;5.80;2.22;;;14.50;93.80;;;;;;5453120;26;20003;-73
2024/04/14 00:46:54;;;;;;;5.47;2.47;;;14.50;93.90;;;;;;5451083;26;19999;-73
2024/04/14 00:49:22;;;;;;;3.05;1.83;;;14.40;94.00;;;;;;5421918;26;19995;-73
2024/04/14 00:51:50;;;;;;;6.60;2.20;;;14.30;93.90;;;;;;5481346;26;20032;-73
2024/04/14 00:54:18;;;;;;;8.68;2.53;;;14.20;93.90;;;;;;5452774;26;20071;-73
2024/04/14 00:56:46;;;;;;;6.10;2.88;;;14.10;93.90;;;;;;5451033;26;19998;-73
2024/04/14 00:59:14;;;;;;;5.38;2.15;;;14.00;93.70;;;;;;5450945;26;20318;-73
2024/04/14 01:01:43;;;;;;;7.70;2.35;;;13.90;93.70;;;;;;5450954;26;20332;-73
2024/04/14 01:04:10;;;;;;;6.10;2.33;;;13.80;93.60;;;;;;5452107;26;19998;-73
2024/04/14 01:06:38;;;;;;;4.10;1.75;;;13.80;93.50;;;;;;5452546;26;20010;-73
2024/04/14 01:09:05;;;;;;;3.90;2.30;;;13.60;93.50;;;;;;5450331;26;19999;-73
2024/04/14 01:11:33;;;;;;;2.58;2.15;;;13.50;93.50;;;;;;5481026;26;20035;-73
2024/04/14 01:14:07;;;;;;;3.53;2.03;;;13.40;93.60;;;;;;5420992;26;20002;-73
2024/04/14 01:16:36;;;;;;;2.80;1.77;;;13.30;93.50;;;;;;5451075;26;20002;-73
2024/04/14 01:19:04;;;;;;;5.57;1.40;;;13.20;93.40;;;;;;5450503;26;20062;-73
2024/04/14 01:21:31;;;;;;;5.82;2.70;;;13.20;93.30;;;;;;5481004;26;20003;-73
2024/04/14 01:23:59;;;;;;;4.05;1.58;;;13.10;93.30;;;;;;5450346;26;20478;-73
2024/04/14 01:26:26;;;;;;;6.60;3.35;;;13.00;93.20;;;;;;5450685;26;20002;-73
2024/04/14 01:28:53;;;;;;;3.42;1.85;;;12.80;93.10;;;;;;5452066;26;20332;-73
2024/04/14 01:31:20;;;;;;;4.03;2.20;;;12.70;93.20;;;;;;5480639;26;20006;-73
2024/04/14 01:33:47;;;;;;;6.65;2.05;;;12.50;93.20;;;;;;5450364;26;20072;-73
2024/04/14 01:36:14;;;;;;;2.90;2.00;;;12.40;93.30;;;;;;5420327;26;20010;-73
2024/04/14 01:38:41;;;;;;;5.40;2.08;;;12.20;93.40;;;;;;5420627;26;19999;-73
2024/04/14 01:41:10;;;;;;;5.38;1.92;;;12.10;93.40;;;;;;5449803;26;19998;-73
2024/04/14 01:43:37;;;;;;;3.72;2.08;;;12.00;93.50;;;;;;5452070;26;19999;-73
2024/04/14 01:46:04;;;;;;;9.07;1.98;;;11.90;93.50;;;;;;5451634;26;20072;-73
2024/04/14 01:48:31;;;;;;;4.97;2.08;;;11.80;93.50;;;;;;5450450;26;20013;-73
2024/04/14 01:50:58;;;;;;;3.92;2.25;;;11.70;93.60;;;;;;5451628;26;20010;-73
2024/04/14 01:53:25;;;;;;;3.35;2.88;;;11.60;93.70;;;;;;5391071;26;19999;-73
2024/04/14 01:55:52;;;;;;;4.22;2.20;;;11.60;93.80;;;;;;5449996;26;19995;-73
2024/04/14 01:58:19;;;;;;;3.17;1.55;;;11.60;93.90;;;;;;5390945;26;20063;-73
2024/04/14 02:00:47;;;;;;;2.55;1.60;;;11.60;94.00;;;;;;5451777;26;20397;-73
2024/04/14 02:03:14;;;;;;;11.52;1.67;;;11.70;93.90;;;;;;5450128;26;19999;-73
2024/04/14 02:05:41;;;;;;;3.38;1.38;;;11.70;93.90;;;;;;5450007;26;20076;-73
2024/04/14 02:08:08;;;;;;;3.63;1.75;;;11.70;94.00;;;;;;5451545;26;19995;-73
2024/04/14 02:10:40;;;;;;;2.78;2.03;;;11.70;93.90;;;;;;5451721;26;19999;-73
2024/04/14 02:13:07;;;;;;;2.55;1.52;;;11.80;93.90;;;;;;5419643;26;19999;-73
2024/04/14 02:15:34;;;;;;;6.53;3.70;;;11.70;93.90;;;;;;5449809;26;20010;-73
2024/04/14 02:18:02;;;;;;;5.90;2.45;;;11.70;93.90;;;;;;5419679;26;20006;-73
2024/04/14 02:20:30;;;;;;;5.47;2.55;;;11.60;93.90;;;;;;5452234;26;20007;-73
2024/04/14 02:22:57;;;;;;;4.55;2.28;;;11.50;94.00;;;;;;5453121;26;20009;-73
2024/04/14 02:25:25;;;;;;;3.67;2.13;;;11.50;94.10;;;;;;5453214;26;20013;-73
2024/04/14 02:27:53;;;;;;;4.80;1.70;;;11.40;94.20;;;;;;5454914;26;20351;-73
2024/04/14 02:30:20;;;;;;;6.93;2.03;;;11.40;94.20;;;;;;5454531;26;19995;-73
2024/04/14 02:32:47;;;;;;;5.68;3.25;;;11.40;94.20;;;;;;5454950;26;19995;-73
2024/04/14 02:35:14;;;;;;;3.70;2.95;;;11.40;94.10;;;;;;5454939;26;20039;-73
2024/04/14 02:37:41;;;;;;;4.60;2.15;;;11.30;94.00;;;;;;5453293;26;20531;-73
2024/04/14 02:40:10;;;;;;;6.40;2.28;;;11.30;94.10;;;;;;5483403;26;19995;-73
2024/04/14 02:42:37;;;;;;;6.60;2.55;;;11.30;94.10;;;;;;5483714;26;20068;-73
2024/04/14 02:45:05;;;;;;;3.40;2.60;;;11.20;94.10;;;;;;5423388;26;20003;-73
2024/04/14 02:47:32;;;;;;;2.38;1.98;;;11.10;94.10;;;;;;5453082;26;20068;-73
2024/04/14 02:50:01;;;;;;;6.25;2.20;;;11.00;94.10;;;;;;5452828;26;20087;-73
2024/04/14 02:52:28;;;;;;;6.05;2.88;;;10.90;94.10;;;;;;5452634;26;20440;-73
2024/04/14 02:54:55;;;;;;;7.00;2.80;;;10.90;94.20;;;;;;5454622;26;19999;-73
2024/04/14 02:57:23;;;;;;;8.65;1.85;;;10.80;94.30;;;;;;5454213;26;19999;-73
2024/04/14 02:59:50;;;;;;;7.65;2.95;;;10.70;94.40;;;;;;5452790;26;19998;-73
2024/04/14 03:02:17;;;;;;;3.60;2.28;;;10.70;94.40;;;;;;5456555;26;20007;-73
2024/04/14 03:04:50;;;;;;;8.57;2.33;;;10.70;94.40;;;;;;5467159;26;20324;-73
2024/04/14 03:07:17;;;;;;;6.72;3.13;;;10.70;94.40;;;;;;5490234;26;20470;-73
2024/04/14 03:09:44;;;;;;;7.22;2.35;;;10.60;94.40;;;;;;5489972;26;20052;-72
2024/04/14 03:12:11;;;;;;;7.40;2.50;;;10.60;94.50;;;;;;5513289;26;19997;-73
2024/04/14 03:14:39;;;;;;;6.28;2.65;;;10.60;94.50;;;;;;5527622;25;20025;-72
2024/04/14 03:17:06;;;;;;;6.45;1.98;;;10.50;94.30;;;;;;5527343;25;19997;-73
2024/04/14 03:19:33;;;;;;;3.50;2.35;;;10.50;94.10;;;;;;5527978;25;20002;-73
2024/04/14 03:22:00;;;;;;;7.32;3.30;;;10.50;93.90;;;;;;5526066;26;19994;-73
2024/04/14 03:24:27;;;;;;;6.20;2.60;;;10.40;93.80;;;;;;5525899;26;20005;-73
2024/04/14 03:26:58;;;;;;;5.38;2.20;;;10.40;93.70;;;;;;5526003;26;20419;-73
2024/04/14 03:29:25;;;;;;;3.55;2.95;;;10.40;93.70;;;;;;5527131;25;20408;-73
2024/04/14 03:31:52;;;;;;;5.32;1.90;;;10.30;93.70;;;;;;5525966;25;20012;-73
2024/04/14 03:34:19;;;;;;;4.53;1.98;;;10.30;93.60;;;;;;5527062;25;20466;-73
2024/04/14 03:36:46;;;;;;;7.28;2.28;;;10.30;93.70;;;;;;5525561;26;20069;-73
2024/04/14 03:39:13;;;;;;;2.13;1.20;;;10.30;93.60;;;;;;5494554;26;19998;-73
2024/04/14 03:41:40;;;;;;;4.55;1.90;;;10.30;93.60;;;;;;5527272;25;19998;-73
2024/04/14 03:44:07;;;;;;;4.55;1.52;;;10.20;93.50;;;;;;5527121;25;20037;-73
2024/04/14 03:46:36;;;;;;;7.57;2.75;;;10.30;93.40;;;;;;5527075;25;20016;-73
2024/04/14 03:49:03;;;;;;;7.38;3.08;;;10.20;93.40;;;;;;5495110;26;20077;-73
2024/04/14 03:51:30;;;;;;;4.60;2.00;;;10.30;93.30;;;;;;5527162;25;19993;-73
2024/04/14 03:53:57;;;;;;;6.43;1.95;;;10.30;93.20;;;;;;5525485;26;20383;-73
2024/04/14 03:56:24;;;;;;;6.95;2.40;;;10.30;93.10;;;;;;5527035;25;20067;-73
2024/04/14 03:58:51;;;;;;;6.53;3.05;;;10.30;93.00;;;;;;5525624;26;19998;-73
2024/04/14 04:01:18;;;;;;;8.07;2.15;;;10.30;93.00;;;;;;5525028;26;20003;-73
2024/04/14 04:03:45;;;;;;;4.60;1.92;;;10.30;92.90;;;;;;5525540;26;20439;-73
2024/04/14 04:06:13;;;;;;;4.82;1.90;;;10.30;92.90;;;;;;5526762;25;19994;-73
2024/04/14 04:08:40;;;;;;;6.35;2.45;;;10.30;92.80;;;;;;5525142;26;19998;-73
2024/04/14 04:11:08;;;;;;;3.55;1.63;;;10.30;92.80;;;;;;5526820;25;20012;-72
2024/04/14 04:13:35;;;;;;;6.70;2.03;;;10.30;92.70;;;;;;5526431;25;19998;-73
2024/04/14 04:16:04;;;;;;;4.28;1.70;;;10.30;92.70;;;;;;5524788;26;19997;-73
2024/04/14 04:18:32;;;;;;;5.32;2.40;;;10.30;92.70;;;;;;5524502;26;20011;-73
2024/04/14 04:21:02;;;;;;;8.45;2.08;;;10.20;92.80;;;;;;5525037;26;19997;-73
2024/04/14 04:23:29;;;;;;;8.23;2.22;;;10.20;92.80;;;;;;5493936;26;20078;-72
2024/04/14 04:25:58;;;;;;;3.63;1.30;;;10.10;92.90;;;;;;5526534;25;20399;-73
2024/04/14 04:28:27;;;;;;;6.95;2.03;;;10.10;93.00;;;;;;5524922;26;20014;-73
2024/04/14 04:30:55;;;;;;;5.60;2.30;;;9.90;93.10;;;;;;5526564;25;19993;-73
2024/04/14 04:33:23;;;;;;;3.05;1.27;;;9.90;93.20;;;;;;5526168;25;20026;-73
2024/04/14 04:36:00;;;;;;;6.10;2.13;;;9.80;93.30;;;;;;5524584;26;19993;-73
2024/04/14 04:38:27;;;;;;;3.38;2.15;;;9.70;93.40;;;;;;5526010;25;20001;-73
2024/04/14 04:40:54;;;;;;;4.57;1.90;;;9.60;93.40;;;;;;5524683;26;20009;-73
2024/04/14 04:43:23;;;;;;;8.05;3.47;;;9.60;93.50;;;;;;5523530;26;20435;-73
2024/04/14 04:45:50;;;;;;;8.10;2.88;;;9.50;93.50;;;;;;5526453;25;20066;-73
2024/04/14 04:48:18;;;;;;;7.38;2.03;;;9.40;93.50;;;;;;5524543;26;20376;-73
2024/04/14 04:50:45;;;;;;;5.18;2.38;;;9.40;93.80;;;;;;5526430;25;19998;-73
2024/04/14 04:53:14;;;;;;;5.82;2.42;;;9.30;94.00;;;;;;5526198;25;19997;-72
2024/04/14 04:55:45;;;;;;;4.38;1.50;;;9.30;94.00;;;;;;5523961;26;20291;-73
2024/04/14 04:58:13;;;;;;;4.07;1.88;;;9.30;94.00;;;;;;5525929;25;20008;-73
2024/04/14 05:00:40;;;;;;;5.65;2.65;;;9.20;94.10;;;;;;5513209;25;20003;-73
2024/04/14 05:03:07;;;;;;;9.10;4.95;;;9.30;94.20;;;;;;5452167;26;19998;-73
2024/04/14 05:05:34;;;;;;;5.30;2.20;;;9.30;94.10;;;;;;5448777;26;20319;-73
2024/04/14 05:08:01;;;;;;;7.30;1.67;;;9.30;94.20;;;;;;5452427;26;19999;-73
2024/04/14 05:10:28;;;;;;;9.70;2.35;;;9.30;94.20;;;;;;5450545;26;20075;-73
2024/04/14 05:12:57;;;;;;;4.47;1.38;;;9.30;94.40;;;;;;5452489;26;20049;-73
2024/04/14 05:15:25;;;;;;;2.30;1.60;;;9.30;94.60;;;;;;5452493;26;20071;-73
2024/04/14 05:17:52;;;;;;;4.43;1.65;;;9.40;94.60;;;;;;5450641;26;20005;-73
2024/04/14 05:20:19;;;;;;;3.15;1.58;;;9.50;94.60;;;;;;5452737;26;20039;-73
2024/04/14 05:22:46;;;;;;;7.45;1.92;;;9.50;94.80;;;;;;5450657;26;20014;-73
2024/04/14 05:25:13;;;;;;;2.60;1.55;;;9.50;94.70;;;;;;5452180;26;19995;-73
2024/04/14 05:27:40;;;;;;;6.70;2.03;;;9.60;94.80;;;;;;5450258;26;19995;-73
2024/04/14 05:30:09;;;;;;;4.18;1.83;;;9.60;94.80;;;;;;5450496;26;19994;-73
2024/04/14 05:32:36;;;;;;;3.88;1.70;;;9.60;94.80;;;;;;5451955;26;20014;-73
2024/04/14 05:35:06;;;;;;;5.47;1.85;;;9.70;94.90;;;;;;5421001;26;19999;-73
2024/04/14 05:37:33;;;;;;;5.25;1.85;;;9.70;95.10;;;;;;5451704;26;20018;-74
2024/04/14 05:40:00;;;;;;;7.85;2.05;;;9.70;95.00;;;;;;5451911;26;20048;-73
2024/04/14 05:42:28;;;;;;;8.13;2.20;;;9.70;95.10;;;;;;5451543;26;20003;-73
2024/04/14 05:44:55;;;;;;;3.10;1.90;;;9.80;95.00;;;;;;5451736;26;20031;-73
2024/04/14 05:47:22;;;;;;;7.30;1.90;;;9.80;95.00;;;;;;5450059;26;20003;-73
2024/04/14 05:49:49;;;;;;;5.05;2.47;;;9.90;95.10;;;;;;5451366;26;20010;-73
2024/04/14 05:52:17;;;;;;;2.05;1.45;;;9.90;95.10;;;;;;5451351;26;20145;-73
2024/04/14 05:54:45;;;;;;;4.55;1.45;;;10.10;95.20;;;;;;5451015;26;20023;-74
2024/04/14 05:57:12;;;;;;;9.05;2.58;;;10.20;95.20;;;;;;5453716;26;19995;-73
2024/04/14 05:59:39;;;;;;;2.97;2.72;;;10.30;95.10;;;;;;5455288;26;20006;-73
2024/04/14 06:02:06;;;;;;;1.52;1.20;;;10.40;95.00;;;;;;5456961;26;20007;-74
2024/04/14 06:04:33;;;;;;;5.35;2.20;;;10.50;94.80;;;;;;5452677;26;19995;-73
2024/04/14 06:07:00;;;;;;;6.70;2.22;;;10.60;94.60;;;;;;5422183;26;19995;-74
2024/04/14 06:09:28;;;;;;;3.72;1.60;;;10.70;94.70;;;;;;5453537;26;20023;-74
2024/04/14 06:11:56;;;;;;;6.07;2.38;;;10.90;94.30;;;;;;5454770;26;20018;-74
2024/04/14 06:14:23;;;;;;;4.40;1.88;;;11.10;94.30;;;;;;5453253;26;20076;-73
2024/04/14 06:16:50;;;;;;;7.20;1.98;;;11.30;94.00;;;;;;5452934;26;19999;-74
2024/04/14 06:19:17;;;;;;;4.63;1.25;;;11.50;93.80;;;;;;5423286;26;19999;-74
2024/04/14 06:21:45;;;;;;;3.67;1.55;;;11.60;93.70;;;;;;5454570;26;20052;-74
2024/04/14 06:24:12;;;;;;;2.95;1.35;;;11.80;93.60;;;;;;5454833;26;20011;-73
2024/04/14 06:26:39;;;;;;;1.77;1.60;;;12.00;93.30;;;;;;5483037;26;20048;-74
2024/04/14 06:29:06;;;;;;;2.90;2.03;;;12.10;92.80;;;;;;5453065;26;20074;-74
2024/04/14 06:31:33;;;;;;;5.85;1.70;;;12.40;93.50;;;;;;5452736;26;19999;-74
2024/04/14 06:34:00;;;;;;;5.80;1.58;;;13.00;93.30;;;;;;5452978;26;20067;-74
2024/04/14 06:36:27;;;;;;;6.05;1.55;;;13.60;92.30;;;;;;5454851;26;20509;-74
2024/04/14 06:38:54;;;;;;;4.65;2.40;;;14.00;91.30;;;;;;5452507;26;20003;-74
2024/04/14 06:41:21;;;;;;;2.78;1.80;;;14.20;91.10;;;;;;5423333;26;19999;-74
2024/04/14 06:43:48;;;;;;;3.65;1.60;;;14.20;90.60;;;;;;5454650;26;19995;-74
2024/04/14 06:46:16;;;;;;;4.97;1.75;;;14.20;90.20;;;;;;5423388;26;20003;-74
2024/04/14 06:48:43;;;;;;;3.47;1.48;;;14.00;89.20;;;;;;5454274;26;19999;-74
2024/04/14 06:51:10;;;;;;;9.32;2.15;;;13.90;89.20;;;;;;5452539;26;20011;-74
2024/04/14 06:53:37;;;;;;;1.80;1.70;;;13.80;89.40;;;;;;5454147;26;20417;-74
2024/04/14 06:56:06;;;;;;;5.93;2.20;;;13.80;90.00;;;;;;5454402;26;20075;-74
2024/04/14 06:58:33;;;;;;;6.82;1.40;;;13.90;90.20;;;;;;5452327;26;20071;-74
2024/04/14 07:01:00;;;;;;;4.38;1.90;;;14.20;89.10;;;;;;5454280;26;19999;-74
2024/04/14 07:03:27;;;;;;;4.35;1.50;;;14.40;88.30;;;;;;5452448;26;20447;-74
2024/04/14 07:05:54;;;;;;;5.70;1.42;;;14.70;87.40;;;;;;5453767;26;20443;-74
2024/04/14 07:08:21;;;;;;;8.30;2.63;;;15.00;86.50;;;;;;5454160;26;19999;-74
2024/04/14 07:10:48;;;;;;;2.78;0.90;;;15.10;85.00;;;;;;5452271;26;19999;-74
2024/04/14 07:13:16;;;;;;;8.82;1.90;;;15.20;83.60;;;;;;5422973;26;20035;-75
2024/04/14 07:15:43;;;;;;;4.50;1.17;;;15.40;83.80;;;;;;5422531;26;19999;-74
2024/04/14 07:18:10;;;;;;;6.72;1.55;;;15.50;81.00;;;;;;5454452;26;20038;-74
2024/04/14 07:20:38;;;;;;;5.93;1.23;;;15.60;81.60;;;;;;5452188;26;20013;-75
2024/04/14 07:23:05;;;;;;;5.15;1.60;;;16.00;82.40;;;;;;5452641;26;20035;-74
2024/04/14 07:25:33;;;;;;;1.63;1.38;;;16.60;83.00;;;;;;5454252;26;20040;-74
2024/04/14 07:28:00;;;;;;;4.35;2.05;;;16.90;77.70;;;;;;5454014;26;19995;-75
2024/04/14 07:30:27;;;;;;;3.30;1.20;;;17.30;79.40;;;;;;5453806;26;20007;-75
2024/04/14 07:32:54;;;;;;;3.45;1.38;;;17.80;79.10;;;;;;5451807;26;20010;-75
2024/04/14 07:35:21;;;;;;;3.03;1.50;;;18.50;78.70;;;;;;5452042;26;20003;-75
2024/04/14 07:37:48;;;;;;;3.25;1.60;;;19.00;74.10;;;;;;5453437;26;20002;-75
2024/04/14 07:40:15;;;;;;;4.03;2.05;;;19.10;74.80;;;;;;5451995;26;19999;-75
2024/04/14 07:42:42;;;;;;;4.65;1.20;;;19.30;74.00;;;;;;5451618;26;19999;-75
2024/04/14 07:45:10;;;;;;;3.33;1.30;;;19.40;73.50;;;;;;5452009;26;20027;-75
2024/04/14 07:47:37;;;;;;;1.73;0.82;;;19.40;72.40;;;;;;5453673;26;20452;-75
2024/04/14 07:50:07;;;;;;;4.93;2.50;;;19.40;71.60;;;;;;5451702;26;19998;-75
2024/04/14 07:52:34;;;;;;;4.97;1.10;;;19.30;71.50;;;;;;5453554;26;20317;-74
2024/04/14 07:55:01;;;;;;;3.92;1.02;;;19.30;71.60;;;;;;5453257;26;20212;-75
2024/04/14 07:57:29;;;;;;;2.10;0.95;;;19.50;71.60;;;;;;5422311;26;20413;-75
2024/04/14 07:59:56;;;;;;;5.95;1.05;;;19.60;71.20;;;;;;5451584;26;20010;-75
2024/04/14 08:02:24;;;;;;;5.50;1.30;;;19.80;70.20;;;;;;5422051;26;19995;-75
2024/04/14 08:04:51;;;;;;;5.28;2.00;;;20.00;69.60;;;;;;5451674;26;19995;-75
2024/04/14 08:07:18;;;;;;;7.82;2.03;;;19.90;69.10;;;;;;5422226;26;20067;-75
2024/04/14 08:09:45;;;;;;;2.50;0.95;;;19.90;69.70;;;;;;5452889;26;19998;-75
2024/04/14 08:12:12;;;;;;;2.85;1.30;;;20.00;68.10;;;;;;5453208;26;20013;-75
2024/04/14 08:14:39;;;;;;;2.78;1.38;;;20.10;68.80;;;;;;5451557;26;20071;-75
2024/04/14 08:17:06;;;;;;;2.90;1.15;;;20.10;68.00;;;;;;5452359;26;20436;-75
2024/04/14 08:19:33;;;;;;;2.72;1.40;;;20.10;67.00;;;;;;5451225;26;19999;-75
2024/04/14 08:22:00;;;;;;;3.28;1.67;;;20.00;67.40;;;;;;5452873;26;20448;-75
2024/04/14 08:24:27;;;;;;;3.78;0.57;;;20.20;68.30;;;;;;5451439;26;20454;-75
2024/04/14 08:26:54;;;;;;;4.70;1.33;;;20.60;67.30;;;;;;5421202;26;19998;-75
2024/04/14 08:29:22;;;;;;;6.40;1.55;;;21.00;66.50;;;;;;5450997;26;20052;-75
2024/04/14 08:31:49;;;;;;;4.95;1.25;;;21.20;65.00;;;;;;5452784;26;19995;-75
2024/04/14 08:34:16;;;;;;;3.40;1.00;;;21.30;65.10;;;;;;5421723;26;20071;-75
2024/04/14 08:36:43;;;;;;;3.55;2.05;;;21.40;64.60;;;;;;5451375;26;20002;-75
2024/04/14 08:39:10;;;;;;;4.38;1.40;;;21.40;64.50;;;;;;5450541;26;19995;-75
2024/04/14 08:41:41;;;;;;;1.80;0.85;;;21.70;65.00;;;;;;5452900;26;20006;-75
2024/04/14 08:44:12;;;;;;;1.17;0.80;;;21.90;64.10;;;;;;5452914;26;20067;-75
2024/04/14 08:46:42;;;;;;;1.88;0.82;;;22.10;63.50;;;;;;5451333;26;20316;-76
2024/04/14 08:49:11;;;;;;;2.47;1.02;;;22.10;62.30;;;;;;5450408;26;19999;-75
2024/04/14 08:51:38;;;;;;;2.08;1.25;;;22.00;62.20;;;;;;5451086;26;20010;-75
2024/04/14 08:54:05;;;;;;;4.40;1.48;;;22.00;62.00;;;;;;5481005;26;20044;-75
2024/04/14 08:56:34;;;;;;;1.88;1.33;;;21.40;61.80;;;;;;5481106;26;20075;-75
2024/04/14 08:59:05;;;;;;;4.97;2.55;;;20.70;61.80;;;;;;5420604;26;19999;-75
2024/04/14 09:01:33;;;;;;;2.95;0.82;;;20.40;62.30;;;;;;5452569;26;20026;-75
2024/04/14 09:04:05;;;;;;;1.67;0.90;;;20.20;63.10;;;;;;5452194;26;20002;-74
2024/04/14 09:06:33;;;;;;;1.90;1.10;;;20.20;63.10;;;;;;5450745;26;20002;-75
2024/04/14 09:09:02;;;;;;;1.20;0.98;;;20.20;62.50;;;;;;5450455;26;19999;-75
2024/04/14 09:11:29;;;;;;;2.63;1.20;;;20.10;63.10;;;;;;5481080;26;20006;-75
2024/04/14 09:13:56;;;;;;;2.10;0.98;;;19.90;63.50;;;;;;5450349;26;19999;-75
2024/04/14 09:16:24;;;;;;;2.63;1.45;;;20.00;64.00;;;;;;5451021;26;20063;-75
2024/04/14 09:18:52;;;;;;;1.85;1.48;;;20.40;63.20;;;;;;5450866;26;19999;-75
2024/04/14 09:21:19;;;;;;;2.65;1.13;;;20.50;62.80;;;;;;5448646;26;20072;-75
2024/04/14 09:23:53;;;;;;;3.28;1.20;;;20.70;63.10;;;;;;5451012;26;20048;-75
2024/04/14 09:26:23;;;;;;;2.55;1.35;;;21.30;62.70;;;;;;5452125;26;20029;-75
2024/04/14 09:29:03;;;;;;;2.17;1.58;;;21.80;62.20;;;;;;5448640;26;19999;-75
2024/04/14 09:31:30;;;;;;;5.57;1.73;;;22.40;62.00;;;;;;5452104;26;20009;-76
2024/04/14 09:33:57;;;;;;;2.22;1.25;;;22.80;61.30;;;;;;5451693;26;20003;-75
2024/04/14 09:36:26;;;;;;;3.33;1.15;;;22.60;60.70;;;;;;5450042;26;20358;-76
2024/04/14 09:38:53;;;;;;;2.13;1.05;;;22.60;61.20;;;;;;5450109;26;20352;-76
2024/04/14 09:41:21;;;;;;;1.92;1.33;;;22.70;58.10;;;;;;5451911;26;20009;-76
2024/04/14 09:43:52;;;;;;;2.20;1.10;;;22.60;59.40;;;;;;5451796;26;20031;-75
2024/04/14 09:46:19;;;;;;;1.70;1.38;;;22.60;59.10;;;;;;5451493;26;20076;-75
2024/04/14 09:48:47;;;;;;;5.18;1.40;;;22.80;59.40;;;;;;5450132;26;20002;-75
2024/04/14 09:51:15;;;;;;;4.63;1.40;;;23.10;58.60;;;;;;5449818;26;20069;-75
2024/04/14 09:53:42;;;;;;;1.80;0.90;;;23.10;59.10;;;;;;5449941;26;20071;-75
2024/04/14 09:56:09;;;;;;;3.47;1.33;;;23.00;59.40;;;;;;5451692;26;20071;-75
2024/04/14 09:58:36;;;;;;;2.75;1.55;;;22.50;59.60;;;;;;5451999;26;20006;-74
2024/04/14 10:01:11;;;;;;;4.53;1.50;;;21.70;59.90;;;;;;5449673;26;20017;-74
2024/04/14 10:03:39;;;;;;;2.38;1.13;;;21.30;61.00;;;;;;5451974;26;20006;-75
2024/04/14 10:06:08;;;;;;;2.90;0.70;;;21.60;61.70;;;;;;5449466;26;20376;-74
2024/04/14 10:08:35;;;;;;;4.22;1.67;;;22.10;60.80;;;;;;5449666;26;20030;-74
2024/04/14 10:11:04;;;;;;;5.25;1.70;;;22.50;59.30;;;;;;5449217;26;19999;-75
2024/04/14 10:13:51;;;;;;;3.28;1.80;;;22.00;60.00;;;;;;5451436;26;20081;-75
2024/04/14 10:16:20;;;;;;;5.30;1.23;;;21.80;60.60;;;;;;5451078;26;20340;-75
2024/04/14 10:18:48;;;;;;;3.97;0.82;;;21.90;61.20;;;;;;5449618;26;19999;-75
2024/04/14 10:21:17;;;;;;;4.50;1.73;;;22.10;60.90;;;;;;5449123;26;20451;-75
2024/04/14 10:23:49;;;;;;;5.95;1.38;;;22.00;61.40;;;;;;5451114;26;19999;-74
2024/04/14 10:26:17;;;;;;;4.40;1.42;;;22.00;62.10;;;;;;5450704;26;20003;-74
2024/04/14 10:28:55;;;;;;;2.08;0.93;;;21.80;61.80;;;;;;5479786;26;20362;-74
2024/04/14 10:31:29;;;;;;;2.92;1.73;;;21.30;62.50;;;;;;5451062;26;20007;-74
2024/04/14 10:34:03;;;;;;;1.42;1.33;;;21.30;62.40;;;;;;5451478;26;20421;-75
2024/04/14 10:36:31;;;;;;;4.45;1.90;;;21.00;62.10;;;;;;5449465;26;19999;-74
2024/04/14 10:38:58;;;;;;;3.30;1.67;;;21.30;59.70;;;;;;5449457;26;20022;-75
2024/04/14 10:41:26;;;;;;;2.63;1.02;;;21.30;60.10;;;;;;5451884;26;19991;-75
2024/04/14 10:43:53;;;;;;;1.67;1.23;;;21.30;61.00;;;;;;5422674;26;20336;-75
2024/04/14 10:46:20;;;;;;;3.63;0.90;;;21.20;60.60;;;;;;5454061;26;20327;-74
2024/04/14 10:48:50;;;;;;;2.38;1.00;;;21.00;61.40;;;;;;5423596;26;20048;-74
2024/04/14 10:51:17;;;;;;;3.03;1.23;;;20.60;61.10;;;;;;5452491;26;20464;-74
2024/04/14 10:53:44;;;;;;;3.20;1.63;;;20.10;61.50;;;;;;5452748;26;19999;-74
2024/04/14 10:56:11;;;;;;;2.90;2.22;;;19.50;60.90;;;;;;5452369;26;19999;-74
2024/04/14 10:58:38;;;;;;;2.35;1.65;;;19.30;60.00;;;;;;5454239;26;19999;-74
2024/04/14 11:01:05;;;;;;;1.50;1.02;;;19.60;60.20;;;;;;5452608;26;19999;-74
2024/04/14 11:03:33;;;;;;;2.08;1.13;;;20.30;59.60;;;;;;5454308;26;20006;-74
2024/04/14 11:06:02;;;;;;;3.22;1.05;;;20.70;59.30;;;;;;5454032;26;20347;-75
2024/04/14 11:08:30;;;;;;;3.22;1.00;;;21.30;59.50;;;;;;5482579;26;19999;-74
2024/04/14 11:10:57;;;;;;;1.52;0.93;;;22.10;59.30;;;;;;5452568;26;19995;-75
2024/04/14 11:13:27;;;;;;;2.55;1.50;;;22.80;57.90;;;;;;5452047;26;20389;-74
2024/04/14 11:15:56;;;;;;;3.75;1.33;;;23.60;57.70;;;;;;5454368;26;19999;-74
2024/04/14 11:18:30;;;;;;;2.47;1.20;;;24.00;57.00;;;;;;5482565;26;20069;-74
2024/04/14 11:20:58;;;;;;;3.08;1.25;;;23.80;56.00;;;;;;5454399;26;20027;-74
2024/04/14 11:23:27;;;;;;;4.35;1.75;;;23.10;57.20;;;;;;5452270;26;19994;-74
2024/04/14 11:25:54;;;;;;;2.97;2.08;;;22.30;58.40;;;;;;5451858;26;20007;-74
2024/04/14 11:28:22;;;;;;;4.05;1.23;;;21.90;58.60;;;;;;5421861;26;19999;-74
2024/04/14 11:30:49;;;;;;;4.38;1.50;;;21.60;58.20;;;;;;5452148;26;20467;-74
2024/04/14 11:33:21;;;;;;;4.72;1.48;;;21.20;58.80;;;;;;5451840;26;20010;-74
2024/04/14 11:35:54;;;;;;;2.30;1.00;;;21.30;59.20;;;;;;5452154;26;20017;-74
2024/04/14 11:38:21;;;;;;;2.67;1.48;;;21.90;58.50;;;;;;5481845;26;20009;-74
2024/04/14 11:40:48;;;;;;;1.75;0.95;;;21.80;57.90;;;;;;5422282;26;20013;-73
2024/04/14 11:43:16;;;;;;;1.35;0.80;;;21.50;58.10;;;;;;5451714;26;19999;-74
2024/04/14 11:45:50;;;;;;;3.40;1.50;;;21.00;59.00;;;;;;5453626;26;20449;-74
2024/04/14 11:48:19;;;;;;;1.23;1.00;;;20.70;59.90;;;;;;5451969;26;19995;-74
2024/04/14 11:50:47;;;;;;;3.10;1.13;;;20.60;59.70;;;;;;5482475;26;20427;-74
2024/04/14 11:53:14;;;;;;;1.63;0.77;;;20.60;59.40;;;;;;5451941;26;23243;-74
2024/04/14 11:55:41;;;;;;;3.17;1.42;;;20.90;57.90;;;;;;5458217;26;20160;-74
2024/04/14 11:58:08;;;;;;;3.63;1.33;;;20.70;57.10;;;;;;5489190;26;19997;-74
2024/04/14 12:00:35;;;;;;;2.65;1.58;;;20.00;57.80;;;;;;5485176;26;20009;-74
2024/04/14 12:03:03;;;;;;;2.90;1.00;;;19.70;59.30;;;;;;5489513;26;20010;-74
2024/04/14 12:05:30;;;;;;;1.65;0.95;;;20.00;59.50;;;;;;5456943;26;20017;-74
2024/04/14 12:07:57;;;;;;;3.72;0.70;;;20.50;58.30;;;;;;5489696;26;20335;-74
2024/04/14 12:10:25;;;;;;;6.70;1.30;;;20.90;58.70;;;;;;5517754;26;20074;-74
2024/04/14 12:12:54;;;;;;;5.22;1.60;;;21.20;58.90;;;;;;5487639;26;19998;-74
2024/04/14 12:15:22;;;;;;;6.35;1.90;;;21.80;58.70;;;;;;5489003;26;20002;-73
2024/04/14 12:17:49;;;;;;;2.80;1.25;;;21.80;58.00;;;;;;5488025;26;20512;-74
2024/04/14 12:20:16;;;;;;;3.28;1.60;;;21.40;58.60;;;;;;5487859;26;19998;-73
2024/04/14 12:22:43;;;;;;;2.97;1.25;;;21.00;59.20;;;;;;5487719;26;20514;-73
2024/04/14 12:25:10;;;;;;;2.70;1.30;;;20.70;59.20;;;;;;5487615;26;19998;-74
2024/04/14 12:27:38;;;;;;;2.58;1.45;;;20.90;59.20;;;;;;5485992;26;20006;-74
2024/04/14 12:30:06;;;;;;;2.85;0.93;;;21.40;58.90;;;;;;5462860;26;20040;-74
2024/04/14 12:32:33;;;;;;;2.00;1.50;;;21.50;58.90;;;;;;5452513;26;20441;-73
2024/04/14 12:35:00;;;;;;;2.33;1.33;;;21.30;58.50;;;;;;5452615;26;20048;-74
2024/04/14 12:37:27;;;;;;;3.40;1.20;;;20.70;59.30;;;;;;5481097;26;19994;-74
2024/04/14 12:39:54;;;;;;;2.80;1.92;;;20.40;59.50;;;;;;5451475;26;19995;-74
2024/04/14 12:42:21;;;;;;;1.60;0.95;;;20.30;59.20;;;;;;5452973;26;20386;-74
2024/04/14 12:44:48;;;;;;;2.40;1.23;;;20.00;58.60;;;;;;5451054;26;20013;-74
2024/04/14 12:47:15;;;;;;;3.55;0.95;;;19.80;58.70;;;;;;5481099;26;20014;-74
2024/04/14 12:49:42;;;;;;;2.85;1.60;;;19.60;58.70;;;;;;5450563;26;20075;-74